Time;durP1;ratioP1;P1;durP2;ratioP2;P2;SDS_P1;SDS_P2;PMS_P1;PMS_P2;Temp;Humidity;BMP_temperature;BMP_pressure;BME280_temperature;BME280_humidity;BME280_pressure;Samples;Min_cycle;Max_cycle;Signal;HPM_P1;HPM_P2
2020/12/11 00:02:09;;;;;;;26.25;15.77;;;2.70;37.70;;;;;;5012310;28;20053;-73
2020/12/11 00:04:36;;;;;;;25.35;14.35;;;2.60;37.40;;;;;;5006560;28;20415;-72
2020/12/11 00:07:03;;;;;;;30.23;16.40;;;2.70;36.20;;;;;;5006983;28;20049;-71
2020/12/11 00:09:30;;;;;;;30.08;15.63;;;2.70;36.80;;;;;;5003985;28;20056;-70
2020/12/11 00:11:57;;;;;;;22.92;14.40;;;2.70;36.20;;;;;;5007625;28;20089;-71
2020/12/11 00:14:24;;;;;;;23.75;14.13;;;2.70;33.00;;;;;;5005834;28;20229;-71
2020/12/11 00:16:51;;;;;;;26.50;15.18;;;2.60;30.70;;;;;;5007827;28;20056;-72
2020/12/11 00:19:19;;;;;;;25.58;14.80;;;2.70;31.30;;;;;;5005412;28;20096;-71
2020/12/11 00:21:48;;;;;;;21.90;13.27;;;2.70;31.20;;;;;;5008524;28;20056;-72
2020/12/11 00:24:16;;;;;;;21.27;12.85;;;2.70;29.90;;;;;;5007575;28;20056;-71
2020/12/11 00:26:42;;;;;;;22.85;13.57;;;2.70;27.30;;;;;;5010511;28;20049;-71
2020/12/11 00:29:10;;;;;;;20.15;12.45;;;2.80;26.80;;;;;;5003585;28;20120;-70
2020/12/11 00:31:38;;;;;;;20.05;13.18;;;2.80;25.30;;;;;;5009399;28;20057;-71
2020/12/11 00:34:05;;;;;;;20.23;12.60;;;2.80;24.00;;;;;;5006619;28;20053;-71
2020/12/11 00:36:33;;;;;;;19.88;12.50;;;2.80;24.20;;;;;;5009347;28;20581;-72
2020/12/11 00:39:00;;;;;;;20.30;13.07;;;2.80;23.90;;;;;;5006256;28;20048;-72
2020/12/11 00:41:26;;;;;;;20.73;12.70;;;2.80;24.30;;;;;;5008979;28;20496;-71
2020/12/11 00:43:53;;;;;;;23.75;14.57;;;2.80;24.50;;;;;;5010315;28;20631;-72
2020/12/11 00:46:25;;;;;;;20.88;12.70;;;2.80;25.20;;;;;;5011509;28;20133;-73
2020/12/11 00:48:53;;;;;;;21.20;13.07;;;2.70;25.50;;;;;;5004152;28;20049;-73
2020/12/11 00:51:21;;;;;;;19.85;12.57;;;2.70;25.50;;;;;;5009155;28;20050;-72
2020/12/11 00:53:49;;;;;;;20.20;12.10;;;2.70;24.70;;;;;;5009221;28;20069;-72
2020/12/11 00:56:16;;;;;;;20.02;12.60;;;2.70;23.30;;;;;;5006491;28;20069;-72
2020/12/11 00:58:44;;;;;;;17.83;12.00;;;2.60;23.50;;;;;;5006929;28;20050;-71
2020/12/11 01:01:11;;;;;;;18.52;11.90;;;2.60;23.90;;;;;;5005123;28;20052;-72
2020/12/11 01:03:38;;;;;;;18.10;11.95;;;2.60;23.90;;;;;;5007071;28;20049;-71
2020/12/11 01:06:06;;;;;;;17.38;11.75;;;2.60;24.80;;;;;;5007779;28;20133;-71
2020/12/11 01:08:33;;;;;;;17.92;11.93;;;2.60;24.90;;;;;;5005284;28;20056;-71
2020/12/11 01:11:01;;;;;;;17.85;12.10;;;2.70;24.70;;;;;;5008203;28;20054;-71
2020/12/11 01:13:28;;;;;;;19.33;12.13;;;2.60;24.80;;;;;;5005919;28;20415;-73
2020/12/11 01:15:55;;;;;;;19.67;12.63;;;2.50;25.10;;;;;;5011830;28;20081;-72
2020/12/11 01:18:22;;;;;;;17.20;11.50;;;2.60;24.40;;;;;;5006178;28;20076;-71
2020/12/11 01:20:48;;;;;;;18.35;11.45;;;2.60;24.00;;;;;;5014137;28;20422;-71
2020/12/11 01:23:15;;;;;;;17.73;11.05;;;2.50;25.10;;;;;;5011678;28;20052;-71
2020/12/11 01:25:42;;;;;;;15.90;10.90;;;2.50;24.80;;;;;;5013568;28;20045;-71
2020/12/11 01:28:10;;;;;;;17.60;11.23;;;2.40;25.60;;;;;;5008380;28;20152;-71
2020/12/11 01:30:37;;;;;;;15.90;11.13;;;2.40;24.80;;;;;;5011187;28;20056;-71
2020/12/11 01:33:04;;;;;;;17.40;11.43;;;2.40;26.30;;;;;;5009170;28;20504;-71
2020/12/11 01:35:31;;;;;;;17.17;10.85;;;2.30;25.20;;;;;;5010758;28;20053;-72
2020/12/11 01:37:58;;;;;;;17.20;10.93;;;2.30;24.80;;;;;;5006968;28;20057;-72
2020/12/11 01:40:24;;;;;;;16.38;10.90;;;2.30;23.60;;;;;;5012940;28;20496;-71
2020/12/11 01:42:51;;;;;;;15.65;10.98;;;2.30;24.30;;;;;;5012405;28;20042;-71
2020/12/11 01:45:19;;;;;;;17.38;11.43;;;2.30;24.10;;;;;;5006969;28;20042;-71
2020/12/11 01:47:47;;;;;;;16.13;11.23;;;2.30;24.30;;;;;;5008107;28;20049;-71
2020/12/11 01:50:19;;;;;;;19.73;10.30;;;2.30;23.50;;;;;;5009406;28;20046;-71
2020/12/11 01:52:47;;;;;;;18.27;11.30;;;2.30;23.00;;;;;;5012535;28;20052;-71
2020/12/11 01:55:14;;;;;;;16.75;10.88;;;2.30;23.80;;;;;;5011827;28;20157;-71
2020/12/11 01:57:50;;;;;;;19.20;10.80;;;2.30;23.10;;;;;;5010575;28;20052;-71
2020/12/11 02:00:20;;;;;;;15.55;10.20;;;2.20;24.30;;;;;;5008866;28;20077;-72
2020/12/11 02:02:52;;;;;;;15.15;10.05;;;2.30;24.60;;;;;;5008136;28;20049;-72
2020/12/11 02:05:19;;;;;;;16.10;10.57;;;2.20;24.70;;;;;;5010501;28;20058;-71
2020/12/11 02:07:46;;;;;;;14.98;10.30;;;2.20;24.70;;;;;;5009681;28;20046;-71
2020/12/11 02:10:13;;;;;;;15.38;9.93;;;2.20;25.20;;;;;;5007720;28;20041;-72
2020/12/11 02:12:40;;;;;;;16.83;11.00;;;2.20;23.70;;;;;;5011093;28;20066;-72
2020/12/11 02:15:07;;;;;;;15.43;11.02;;;2.30;24.80;;;;;;5010190;28;20058;-72
2020/12/11 02:17:37;;;;;;;16.45;10.23;;;2.20;25.00;;;;;;5007579;28;20135;-71
2020/12/11 02:20:05;;;;;;;14.25;10.38;;;2.20;24.30;;;;;;5008948;28;20181;-71
2020/12/11 02:22:32;;;;;;;14.85;9.55;;;2.20;23.70;;;;;;5010330;28;20064;-71
2020/12/11 02:25:00;;;;;;;16.52;11.02;;;2.20;23.50;;;;;;5015164;28;20411;-72
2020/12/11 02:27:26;;;;;;;15.48;10.15;;;2.20;23.10;;;;;;5013215;28;20144;-71
2020/12/11 02:29:53;;;;;;;15.75;10.13;;;2.10;23.80;;;;;;5011050;28;20046;-70
2020/12/11 02:32:21;;;;;;;17.45;11.07;;;2.10;23.50;;;;;;5023291;28;20053;-69
2020/12/11 02:34:48;;;;;;;18.17;10.35;;;2.10;24.90;;;;;;5015791;28;20100;-70
2020/12/11 02:37:15;;;;;;;17.48;11.50;;;1.90;25.50;;;;;;5025491;28;20052;-71
2020/12/11 02:39:43;;;;;;;15.48;10.43;;;1.90;26.40;;;;;;5013776;28;20049;-69
2020/12/11 02:42:10;;;;;;;19.48;12.07;;;2.00;25.30;;;;;;5019076;28;20068;-69
2020/12/11 02:44:37;;;;;;;18.08;11.60;;;1.90;25.40;;;;;;5015983;28;20053;-73
2020/12/11 02:47:04;;;;;;;14.18;10.18;;;1.90;25.90;;;;;;5016927;28;20049;-70
2020/12/11 02:49:31;;;;;;;16.95;10.80;;;1.90;25.60;;;;;;5013048;28;20785;-70
2020/12/11 02:51:58;;;;;;;16.17;10.93;;;1.80;26.10;;;;;;5018863;28;20517;-69
2020/12/11 02:54:25;;;;;;;18.88;11.77;;;1.80;26.20;;;;;;5020464;28;20052;-74
2020/12/11 02:56:53;;;;;;;20.25;12.32;;;1.70;26.10;;;;;;5013235;28;20100;-70
2020/12/11 02:59:20;;;;;;;31.05;19.20;;;1.70;26.70;;;;;;5012959;28;20050;-70
2020/12/11 03:01:47;;;;;;;29.80;18.58;;;1.60;27.60;;;;;;5020221;28;20061;-69
2020/12/11 03:04:14;;;;;;;26.45;15.57;;;1.70;27.70;;;;;;5024535;28;20567;-73
2020/12/11 03:06:41;;;;;;;20.38;14.23;;;1.70;27.10;;;;;;5024747;28;20055;-70
2020/12/11 03:09:08;;;;;;;23.17;15.23;;;1.70;26.40;;;;;;5015647;28;20050;-71
2020/12/11 03:11:35;;;;;;;23.50;14.90;;;1.70;27.70;;;;;;5015045;28;20060;-73
2020/12/11 03:14:03;;;;;;;24.30;15.98;;;1.60;27.60;;;;;;5012299;28;20046;-70
2020/12/11 03:16:29;;;;;;;25.98;13.60;;;1.60;27.60;;;;;;5010694;28;20053;-72
2020/12/11 03:18:56;;;;;;;22.40;12.68;;;1.60;27.90;;;;;;5009444;28;20133;-73
2020/12/11 03:21:23;;;;;;;19.15;13.02;;;1.60;28.20;;;;;;5012288;28;20045;-73
2020/12/11 03:23:50;;;;;;;20.75;12.23;;;1.50;28.50;;;;;;5015338;28;20072;-70
2020/12/11 03:26:17;;;;;;;19.02;11.57;;;1.60;27.70;;;;;;5014176;28;20050;-72
2020/12/11 03:28:44;;;;;;;19.40;12.35;;;1.50;28.60;;;;;;5010589;28;20054;-68
2020/12/11 03:31:12;;;;;;;19.80;12.90;;;1.40;29.20;;;;;;5012523;28;20060;-72
2020/12/11 03:33:39;;;;;;;21.98;12.32;;;1.40;29.60;;;;;;5010646;28;20492;-71
2020/12/11 03:36:05;;;;;;;19.67;12.65;;;1.40;30.00;;;;;;5013991;28;20480;-73
2020/12/11 03:38:32;;;;;;;21.98;12.75;;;1.30;30.60;;;;;;5008921;28;20058;-73
2020/12/11 03:40:59;;;;;;;20.63;12.82;;;1.20;30.90;;;;;;5010775;28;20431;-73
2020/12/11 03:43:26;;;;;;;19.50;12.15;;;1.20;31.00;;;;;;5008826;28;20052;-73
2020/12/11 03:45:53;;;;;;;21.70;12.40;;;1.20;31.40;;;;;;5010628;28;20052;-73
2020/12/11 03:48:21;;;;;;;21.33;12.68;;;1.20;32.10;;;;;;5009399;28;20041;-74
2020/12/11 03:50:48;;;;;;;21.73;12.73;;;1.20;33.20;;;;;;5011992;28;20038;-72
2020/12/11 03:53:15;;;;;;;23.77;13.77;;;1.10;33.10;;;;;;5011453;28;20046;-72
2020/12/11 03:55:42;;;;;;;21.77;12.95;;;1.10;33.80;;;;;;5012294;28;20050;-73
2020/12/11 03:58:09;;;;;;;22.58;13.93;;;1.10;33.80;;;;;;5012814;28;20052;-69
2020/12/11 04:00:36;;;;;;;24.50;14.30;;;1.10;33.80;;;;;;5013512;28;20045;-74
2020/12/11 04:03:03;;;;;;;24.77;14.10;;;1.10;34.70;;;;;;5009065;28;20112;-71
2020/12/11 04:05:31;;;;;;;23.70;13.60;;;1.10;33.90;;;;;;5011369;28;20420;-71
2020/12/11 04:07:57;;;;;;;25.10;14.18;;;1.10;34.60;;;;;;5010658;28;20049;-71
2020/12/11 04:10:24;;;;;;;29.30;14.07;;;1.20;33.60;;;;;;5006265;28;20046;-74
2020/12/11 04:12:51;;;;;;;25.80;14.38;;;1.20;32.80;;;;;;5011267;28;20353;-73
2020/12/11 04:15:18;;;;;;;24.88;14.57;;;1.10;33.20;;;;;;5012874;28;20050;-73
2020/12/11 04:17:45;;;;;;;22.20;13.80;;;1.10;33.70;;;;;;5008975;28;20053;-74
2020/12/11 04:20:13;;;;;;;23.63;14.57;;;1.20;33.70;;;;;;5013433;28;20060;-73
2020/12/11 04:22:40;;;;;;;28.88;15.70;;;1.20;34.30;;;;;;5009977;28;20046;-69
2020/12/11 04:25:07;;;;;;;26.17;14.30;;;1.10;33.30;;;;;;5010170;28;20523;-72
2020/12/11 04:27:34;;;;;;;24.30;14.40;;;1.10;34.80;;;;;;5011877;28;20060;-67
2020/12/11 04:30:00;;;;;;;27.00;15.30;;;1.10;34.10;;;;;;5009997;28;20060;-73
2020/12/11 04:32:27;;;;;;;28.77;16.10;;;1.10;34.80;;;;;;5014074;28;20049;-70
2020/12/11 04:34:54;;;;;;;25.35;15.32;;;1.10;34.80;;;;;;5013685;28;20077;-71
2020/12/11 04:37:21;;;;;;;22.67;13.65;;;1.10;34.80;;;;;;5013310;28;20064;-75
2020/12/11 04:39:48;;;;;;;23.52;13.63;;;1.10;35.40;;;;;;5007435;28;20481;-73
2020/12/11 04:42:18;;;;;;;25.60;15.05;;;1.10;34.80;;;;;;5011857;28;20046;-73
2020/12/11 04:44:44;;;;;;;27.08;14.82;;;1.00;34.80;;;;;;5009832;28;20516;-71
2020/12/11 04:47:12;;;;;;;28.65;14.88;;;1.00;35.00;;;;;;5011656;28;20062;-73
2020/12/11 04:49:40;;;;;;;29.75;16.20;;;0.90;35.80;;;;;;5009985;28;20550;-73
2020/12/11 04:52:07;;;;;;;26.23;15.38;;;0.90;36.60;;;;;;5012931;28;20529;-70
2020/12/11 04:54:38;;;;;;;26.38;14.93;;;0.90;36.80;;;;;;5011818;28;20392;-73
2020/12/11 04:57:10;;;;;;;27.27;14.95;;;0.90;36.00;;;;;;5016899;28;20056;-72
2020/12/11 04:59:37;;;;;;;27.45;14.80;;;0.80;37.90;;;;;;5015125;28;20042;-72
2020/12/11 05:02:11;;;;;;;25.65;14.65;;;0.80;37.30;;;;;;5017369;28;20513;-70
2020/12/11 05:04:38;;;;;;;28.73;15.63;;;0.70;38.80;;;;;;5016119;28;20704;-73
2020/12/11 05:07:05;;;;;;;28.70;15.63;;;0.70;39.50;;;;;;5015681;28;20056;-74
2020/12/11 05:09:32;;;;;;;28.83;15.90;;;0.60;40.00;;;;;;5011928;28;20052;-73
2020/12/11 05:11:58;;;;;;;28.48;15.68;;;0.60;40.20;;;;;;5015269;28;20062;-73
2020/12/11 05:14:27;;;;;;;28.08;15.00;;;0.50;41.70;;;;;;5014796;28;20515;-70
2020/12/11 05:16:59;;;;;;;30.48;15.77;;;0.40;42.50;;;;;;5018204;28;20162;-71
2020/12/11 05:19:27;;;;;;;30.52;16.60;;;0.50;42.80;;;;;;5012983;28;20045;-73
2020/12/11 05:21:54;;;;;;;28.23;15.77;;;0.40;42.50;;;;;;5016204;28;20511;-70
2020/12/11 05:24:22;;;;;;;30.13;15.55;;;0.40;43.20;;;;;;5017240;28;20052;-72
2020/12/11 05:26:49;;;;;;;30.42;16.08;;;0.30;42.40;;;;;;5016073;28;20560;-72
2020/12/11 05:29:30;;;;;;;32.28;16.73;;;0.30;44.40;;;;;;5006142;28;20087;-71
2020/12/11 05:31:56;;;;;;;30.27;16.10;;;0.30;44.40;;;;;;5015824;28;20045;-73
2020/12/11 05:34:23;;;;;;;31.30;17.67;;;0.30;44.90;;;;;;5012957;28;20076;-73
2020/12/11 05:36:52;;;;;;;33.88;16.75;;;0.30;44.50;;;;;;5015896;28;20046;-71
2020/12/11 05:39:33;;;;;;;30.20;16.77;;;0.30;45.20;;;;;;5009308;28;20492;-71
2020/12/11 05:42:01;;;;;;;33.28;17.25;;;0.30;45.40;;;;;;5011358;28;20068;-70
2020/12/11 05:44:30;;;;;;;27.27;15.38;;;0.20;45.80;;;;;;5014408;28;20056;-71
2020/12/11 05:46:59;;;;;;;30.67;16.17;;;0.10;46.20;;;;;;5015425;28;20046;-73
2020/12/11 05:49:28;;;;;;;29.92;16.63;;;0.00;47.30;;;;;;5014167;28;20556;-73
2020/12/11 05:52:10;;;;;;;32.33;17.02;;;0.10;47.70;;;;;;5015520;28;20428;-69
2020/12/11 05:54:45;;;;;;;34.05;18.10;;;0.10;47.10;;;;;;5013872;28;20054;-71
2020/12/11 05:57:13;;;;;;;36.80;19.30;;;0.20;46.70;;;;;;5014532;28;20049;-73
2020/12/11 05:59:43;;;;;;;31.23;16.92;;;0.30;46.40;;;;;;5011274;28;20519;-73
2020/12/11 06:02:10;;;;;;;30.95;17.33;;;0.40;45.50;;;;;;5015333;28;20506;-71
2020/12/11 06:04:38;;;;;;;35.53;17.48;;;0.30;45.30;;;;;;5014582;28;20053;-70
2020/12/11 06:07:12;;;;;;;31.08;16.48;;;0.30;45.60;;;;;;5015718;28;20401;-72
2020/12/11 06:09:41;;;;;;;32.35;16.98;;;0.30;44.80;;;;;;5011926;28;20049;-69
2020/12/11 06:12:10;;;;;;;30.30;16.80;;;0.30;44.80;;;;;;5018207;28;20056;-70
2020/12/11 06:15:18;;;;;;;32.85;17.75;;;0.30;44.90;;;;;;5017251;28;20137;-73
2020/12/11 06:17:49;;;;;;;35.33;17.63;;;0.30;44.40;;;;;;5008750;28;20439;-72
2020/12/11 06:20:17;;;;;;;33.95;18.05;;;0.30;44.30;;;;;;5012320;28;20408;-73
2020/12/11 06:22:45;;;;;;;36.85;19.25;;;0.30;44.70;;;;;;5014195;28;20475;-74
2020/12/11 06:25:28;;;;;;;36.47;18.48;;;0.30;45.10;;;;;;5009456;28;20053;-74
2020/12/11 06:27:56;;;;;;;31.58;16.65;;;0.30;45.10;;;;;;5010000;28;20061;-75
2020/12/11 06:30:28;;;;;;;32.53;17.30;;;0.30;44.30;;;;;;5008551;28;20053;-74
2020/12/11 06:32:57;;;;;;;35.42;17.73;;;0.20;45.00;;;;;;5011018;28;20069;-73
2020/12/11 06:35:24;;;;;;;33.60;16.80;;;0.40;44.30;;;;;;5010763;28;20090;-73
2020/12/11 06:37:51;;;;;;;29.90;16.42;;;0.30;42.60;;;;;;5014325;28;20042;-70
2020/12/11 06:40:46;;;;;;;32.92;16.77;;;0.30;42.40;;;;;;5014803;28;20397;-69
2020/12/11 06:43:36;;;;;;;28.85;15.98;;;0.40;42.50;;;;;;5014096;28;20049;-71
2020/12/11 06:46:14;;;;;;;33.63;17.40;;;0.30;43.90;;;;;;5014621;28;20045;-73
2020/12/11 06:49:08;;;;;;;29.38;16.10;;;0.30;44.00;;;;;;5011200;28;20060;-74
2020/12/11 06:51:55;;;;;;;30.42;15.60;;;0.30;43.20;;;;;;5014887;28;20080;-71
2020/12/11 06:54:53;;;;;;;33.03;16.77;;;0.40;42.70;;;;;;5013423;28;20053;-72
2020/12/11 06:57:43;;;;;;;30.58;16.35;;;0.30;42.40;;;;;;5014113;28;20045;-73
2020/12/11 07:00:37;;;;;;;35.13;17.02;;;0.40;42.50;;;;;;5010578;28;20042;-72
2020/12/11 07:03:25;;;;;;;29.55;16.02;;;0.40;41.60;;;;;;5012844;28;20053;-75
2020/12/11 07:05:58;;;;;;;30.05;14.85;;;0.50;40.30;;;;;;5018007;28;20542;-74
2020/12/11 07:08:25;;;;;;;31.23;15.40;;;0.50;40.50;;;;;;5009313;28;20886;-70
2020/12/11 07:10:52;;;;;;;32.67;16.15;;;0.50;38.90;;;;;;5012728;28;20049;-71
2020/12/11 07:13:19;;;;;;;32.05;16.00;;;0.60;38.40;;;;;;5008928;28;20084;-74
2020/12/11 07:15:45;;;;;;;29.95;15.52;;;0.60;37.60;;;;;;5009984;28;20050;-70
2020/12/11 07:18:13;;;;;;;29.13;14.88;;;0.60;36.30;;;;;;5010180;28;20061;-70
2020/12/11 07:20:50;;;;;;;31.40;15.23;;;0.70;36.90;;;;;;5008357;28;20042;-67
2020/12/11 07:23:18;;;;;;;31.00;15.77;;;0.70;35.00;;;;;;5008637;28;20083;-67
2020/12/11 07:25:47;;;;;;;27.08;15.32;;;0.80;34.60;;;;;;5010554;28;20050;-69
2020/12/11 07:28:14;;;;;;;24.42;13.60;;;0.80;34.60;;;;;;5009121;28;20045;-70
2020/12/11 07:30:43;;;;;;;26.42;14.82;;;1.00;31.50;;;;;;5010312;28;20510;-68
2020/12/11 07:33:10;;;;;;;25.27;13.80;;;0.80;33.30;;;;;;5009568;28;20116;-68
2020/12/11 07:35:42;;;;;;;30.45;15.93;;;0.80;33.50;;;;;;5008424;28;20058;-70
2020/12/11 07:38:10;;;;;;;28.90;13.60;;;0.90;34.70;;;;;;5007380;28;20100;-69
2020/12/11 07:40:37;;;;;;;29.27;14.65;;;0.90;33.40;;;;;;5008519;28;20049;-69
2020/12/11 07:43:05;;;;;;;26.83;14.60;;;0.80;33.30;;;;;;5009047;28;20050;-69
2020/12/11 07:45:35;;;;;;;25.40;13.25;;;0.80;32.80;;;;;;5009853;28;20064;-68
2020/12/11 07:48:03;;;;;;;25.88;14.88;;;1.10;30.20;;;;;;5007420;28;21368;-69
2020/12/11 07:50:31;;;;;;;26.35;14.27;;;1.00;32.00;;;;;;5008018;28;20046;-68
2020/12/11 07:52:59;;;;;;;32.10;15.35;;;1.00;30.00;;;;;;5008200;28;20057;-68
2020/12/11 07:55:29;;;;;;;27.55;14.25;;;0.90;31.40;;;;;;5007849;28;20042;-68
2020/12/11 07:57:59;;;;;;;27.02;14.13;;;0.80;30.80;;;;;;5007263;28;20077;-73
2020/12/11 08:00:26;;;;;;;29.27;14.57;;;0.90;31.30;;;;;;5008012;28;20137;-70
2020/12/11 08:02:55;;;;;;;27.25;13.75;;;0.90;31.50;;;;;;5009620;28;20050;-74
2020/12/11 08:05:23;;;;;;;26.00;14.18;;;0.90;30.40;;;;;;5011427;28;20049;-73
2020/12/11 08:07:52;;;;;;;29.75;15.88;;;0.90;30.50;;;;;;5007407;28;20050;-71
2020/12/11 08:10:21;;;;;;;26.50;14.27;;;1.00;30.40;;;;;;5005595;28;20045;-73
2020/12/11 08:12:49;;;;;;;24.83;13.18;;;1.10;30.40;;;;;;5009560;28;20500;-73
2020/12/11 08:15:30;;;;;;;32.25;15.10;;;1.10;30.10;;;;;;5007681;28;20049;-73
2020/12/11 08:18:08;;;;;;;27.52;13.43;;;1.10;29.40;;;;;;5007317;28;20049;-71
2020/12/11 08:20:47;;;;;;;29.02;13.30;;;1.10;29.70;;;;;;5011212;28;20071;-73
2020/12/11 08:23:19;;;;;;;25.83;14.52;;;1.20;29.10;;;;;;5007877;28;21619;-72
2020/12/11 08:25:46;;;;;;;27.10;14.80;;;1.20;28.80;;;;;;5010275;28;20048;-71
2020/12/11 08:28:24;;;;;;;26.35;14.27;;;1.30;28.60;;;;;;5007748;28;20065;-69
2020/12/11 08:30:52;;;;;;;25.05;13.57;;;1.30;28.20;;;;;;5014437;28;20056;-75
2020/12/11 08:33:19;;;;;;;25.50;13.73;;;1.30;27.40;;;;;;5014002;28;20054;-69
2020/12/11 08:35:45;;;;;;;28.13;14.38;;;1.30;27.40;;;;;;5013872;28;20050;-72
2020/12/11 08:38:14;;;;;;;27.88;14.88;;;1.40;28.00;;;;;;5012287;28;20069;-74
2020/12/11 08:40:48;;;;;;;31.02;15.85;;;1.50;27.90;;;;;;5012614;28;20121;-73
2020/12/11 08:43:25;;;;;;;30.00;15.15;;;1.60;27.20;;;;;;5013967;28;20522;-73
2020/12/11 08:46:06;;;;;;;27.05;14.27;;;1.70;26.60;;;;;;5013760;28;20050;-73
2020/12/11 08:48:57;;;;;;;28.02;14.07;;;1.70;26.80;;;;;;5005934;28;20058;-73
2020/12/11 08:51:24;;;;;;;29.73;14.25;;;1.80;25.60;;;;;;5013436;28;20042;-72
2020/12/11 08:53:53;;;;;;;27.77;14.63;;;1.80;25.40;;;;;;5011474;28;20064;-74
2020/12/11 08:56:42;;;;;;;25.20;13.77;;;1.60;24.70;;;;;;5013067;28;20061;-74
2020/12/11 08:59:09;;;;;;;25.73;14.32;;;1.60;24.50;;;;;;5009306;28;20072;-73
2020/12/11 09:01:40;;;;;;;27.55;14.90;;;1.80;25.20;;;;;;5016036;28;20053;-73
2020/12/11 09:04:07;;;;;;;28.52;14.40;;;1.80;24.10;;;;;;5013210;28;20104;-72
2020/12/11 09:06:34;;;;;;;28.10;14.23;;;1.80;24.00;;;;;;5013855;28;20061;-73
2020/12/11 09:09:01;;;;;;;25.40;13.82;;;1.80;23.40;;;;;;5013705;28;20042;-72
2020/12/11 09:11:28;;;;;;;26.30;14.73;;;1.90;23.90;;;;;;5012687;28;20081;-73
2020/12/11 09:13:55;;;;;;;27.95;13.57;;;1.90;23.90;;;;;;5014862;28;20437;-73
2020/12/11 09:16:22;;;;;;;27.15;14.52;;;1.90;23.60;;;;;;5013443;28;20061;-74
2020/12/11 09:18:50;;;;;;;29.50;14.73;;;2.10;23.40;;;;;;5006934;28;20057;-71
2020/12/11 09:21:17;;;;;;;29.70;14.77;;;2.10;23.20;;;;;;5013496;28;20046;-74
2020/12/11 09:23:45;;;;;;;27.58;14.40;;;2.10;24.00;;;;;;5014097;28;20555;-73
2020/12/11 09:26:13;;;;;;;25.45;13.68;;;2.10;23.90;;;;;;5016270;28;20094;-72
2020/12/11 09:28:45;;;;;;;31.38;15.02;;;2.10;24.10;;;;;;5011233;28;20065;-72
2020/12/11 09:31:20;;;;;;;27.95;14.18;;;2.10;23.10;;;;;;5012406;28;20176;-72
2020/12/11 09:33:48;;;;;;;28.52;14.98;;;2.10;23.20;;;;;;5011228;28;20046;-70
2020/12/11 09:36:17;;;;;;;27.95;15.00;;;2.20;22.10;;;;;;5014286;28;20090;-73
2020/12/11 09:38:45;;;;;;;28.50;14.35;;;2.20;21.30;;;;;;5010470;28;20058;-73
2020/12/11 09:41:16;;;;;;;35.22;14.90;;;2.20;21.30;;;;;;5012834;28;20048;-73
2020/12/11 09:44:00;;;;;;;26.15;13.63;;;2.20;21.80;;;;;;5011697;28;20133;-73
2020/12/11 09:46:39;;;;;;;28.58;14.70;;;2.40;21.40;;;;;;5012463;28;20061;-72
2020/12/11 09:49:11;;;;;;;28.27;14.40;;;2.30;19.80;;;;;;4990700;28;20057;-74
2020/12/11 09:51:58;;;;;;;26.23;14.90;;;2.40;21.20;;;;;;5014165;28;20042;-70
2020/12/11 09:54:31;;;;;;;29.27;14.43;;;2.40;21.00;;;;;;5011230;28;20156;-73
2020/12/11 09:56:59;;;;;;;25.67;13.45;;;2.50;20.20;;;;;;5013882;28;20060;-73
2020/12/11 09:59:32;;;;;;;30.88;14.30;;;2.40;20.80;;;;;;5007526;28;20056;-73
2020/12/11 10:02:11;;;;;;;41.88;16.17;;;2.40;20.80;;;;;;5011379;28;20476;-71
2020/12/11 10:04:42;;;;;;;27.42;13.65;;;2.80;19.50;;;;;;5009562;28;20080;-72
2020/12/11 10:07:10;;;;;;;27.60;14.43;;;2.60;19.50;;;;;;5011408;28;21236;-71
2020/12/11 10:09:40;;;;;;;27.50;14.38;;;2.60;19.90;;;;;;5012534;28;20045;-74
2020/12/11 10:12:11;;;;;;;26.98;13.70;;;2.70;19.80;;;;;;5010681;28;20053;-71
2020/12/11 10:14:40;;;;;;;28.73;14.68;;;2.70;20.30;;;;;;5010687;28;20046;-72
2020/12/11 10:17:09;;;;;;;28.40;14.38;;;2.60;19.90;;;;;;5013110;28;20053;-72
2020/12/11 10:19:39;;;;;;;27.70;14.93;;;2.70;19.80;;;;;;5006051;28;20307;-71
2020/12/11 10:22:07;;;;;;;27.67;13.55;;;2.60;20.60;;;;;;5016210;28;20046;-71
2020/12/11 10:24:37;;;;;;;25.50;13.75;;;2.50;19.70;;;;;;5011418;28;20050;-71
2020/12/11 10:27:05;;;;;;;26.50;13.90;;;2.70;20.60;;;;;;5011574;28;20118;-72
2020/12/11 10:29:32;;;;;;;27.85;13.65;;;2.80;21.60;;;;;;5012014;28;20144;-72
2020/12/11 10:32:00;;;;;;;26.17;14.27;;;2.90;20.60;;;;;;5008711;28;20120;-71
2020/12/11 10:34:27;;;;;;;31.80;14.23;;;2.60;20.60;;;;;;4996576;28;21259;-70
2020/12/11 10:36:54;;;;;;;23.90;13.07;;;2.70;21.10;;;;;;5011195;28;20060;-71
2020/12/11 10:39:26;;;;;;;29.08;14.32;;;2.70;21.50;;;;;;5009245;28;20052;-71
2020/12/11 10:41:55;;;;;;;25.30;13.23;;;2.90;20.40;;;;;;5009254;28;20046;-71
2020/12/11 10:44:24;;;;;;;27.42;12.80;;;2.90;20.20;;;;;;5010222;28;20129;-72
2020/12/11 10:46:53;;;;;;;27.80;13.93;;;3.00;20.10;;;;;;5011120;28;20431;-71
2020/12/11 10:49:21;;;;;;;35.13;16.50;;;3.00;20.80;;;;;;4986664;28;20058;-72
2020/12/11 10:51:51;;;;;;;25.73;13.40;;;3.10;20.70;;;;;;5008138;28;20046;-72
2020/12/11 10:54:26;;;;;;;26.40;13.57;;;3.20;19.30;;;;;;5010579;28;20073;-72
2020/12/11 10:56:55;;;;;;;29.77;13.25;;;3.10;20.40;;;;;;5012816;28;20066;-71
2020/12/11 10:59:23;;;;;;;27.98;13.43;;;3.10;19.80;;;;;;5007473;28;20064;-70
2020/12/11 11:01:50;;;;;;;24.73;13.05;;;3.10;19.90;;;;;;5011861;28;20423;-70
2020/12/11 11:04:18;;;;;;;22.50;12.13;;;3.00;19.50;;;;;;5009844;28;20054;-71
2020/12/11 11:06:48;;;;;;;25.15;12.63;;;3.00;19.70;;;;;;5014350;28;20147;-72
2020/12/11 11:12:06;;;;;;;29.95;16.95;;;2.90;20.60;;;;;;5009171;28;20428;-72
2020/12/11 11:14:55;;;;;;;28.52;12.43;;;3.20;19.90;;;;;;5011225;28;20046;-71
2020/12/11 11:18:00;;;;;;;36.92;11.68;;;3.10;20.00;;;;;;5013312;28;20050;-71
2020/12/11 11:20:44;;;;;;;20.10;11.27;;;3.20;19.50;;;;;;5008064;28;20056;-71
2020/12/11 11:23:19;;;;;;;23.23;11.55;;;3.30;19.80;;;;;;5009023;28;20082;-72
2020/12/11 11:28:43;;;;;;;20.70;10.73;;;3.40;19.40;;;;;;5005456;28;20053;-72
2020/12/11 11:31:11;;;;;;;21.02;11.82;;;3.40;18.70;;;;;;5006323;28;20042;-73
2020/12/11 11:33:38;;;;;;;20.20;11.23;;;3.40;18.70;;;;;;5006199;28;20054;-72
2020/12/11 11:36:05;;;;;;;17.85;10.80;;;3.20;18.30;;;;;;5010886;28;20423;-72
2020/12/11 11:38:33;;;;;;;29.90;12.45;;;3.50;19.00;;;;;;5008444;28;20500;-71
2020/12/11 11:40:59;;;;;;;21.88;12.02;;;3.60;18.20;;;;;;5006814;28;20045;-71
2020/12/11 11:43:39;;;;;;;25.02;11.60;;;3.80;17.40;;;;;;5005148;28;20046;-73
2020/12/11 11:46:07;;;;;;;23.08;11.00;;;3.80;17.40;;;;;;5008167;28;20053;-73
2020/12/11 11:48:39;;;;;;;23.58;11.45;;;3.70;17.10;;;;;;5009004;28;20054;-71
2020/12/11 11:51:10;;;;;;;19.40;11.45;;;3.60;17.10;;;;;;5004857;28;20097;-72
2020/12/11 11:53:37;;;;;;;27.80;12.23;;;3.70;17.10;;;;;;5007794;28;20060;-71
2020/12/11 11:56:04;;;;;;;16.73;10.77;;;3.70;17.70;;;;;;5008806;28;20056;-73
2020/12/11 11:58:31;;;;;;;21.67;11.75;;;3.70;17.30;;;;;;5007872;28;20065;-72
2020/12/11 12:00:58;;;;;;;20.42;11.02;;;3.70;17.30;;;;;;5006063;28;20068;-72
2020/12/11 12:03:26;;;;;;;25.92;11.75;;;3.50;17.70;;;;;;5002371;28;20049;-72
2020/12/11 12:05:53;;;;;;;25.10;11.48;;;3.70;17.30;;;;;;5008209;28;20057;-71
2020/12/11 12:08:20;;;;;;;21.25;11.63;;;3.80;17.40;;;;;;5006124;28;20074;-71
2020/12/11 12:18:55;;;;;;;23.75;12.40;;;3.70;17.40;;;;;;5005682;28;20108;-72
2020/12/11 12:21:28;;;;;;;21.95;11.57;;;3.60;17.50;;;;;;5005523;28;20060;-71
2020/12/11 12:29:28;;;;;;;;;;;3.80;18.30;;;;;;5004902;28;20575;-72
2020/12/11 12:31:58;;;;;;;27.13;11.85;;;3.60;17.60;;;;;;5005633;28;20368;-71
2020/12/11 12:34:44;;;;;;;22.23;12.52;;;3.80;18.60;;;;;;5005977;28;20069;-72
2020/12/11 12:45:28;;;;;;;21.05;11.88;;;3.80;18.10;;;;;;4984916;28;20053;-73
2020/12/11 12:47:55;;;;;;;18.48;11.35;;;4.00;18.30;;;;;;5008919;28;20054;-72
2020/12/11 12:50:23;;;;;;;27.45;13.40;;;4.00;18.40;;;;;;5004930;28;20508;-72
2020/12/11 12:52:50;;;;;;;21.15;12.10;;;4.00;18.30;;;;;;5005615;28;20045;-73
2020/12/11 12:55:20;;;;;;;27.63;12.40;;;3.90;18.20;;;;;;5008492;28;20053;-73
2020/12/11 12:57:49;;;;;;;24.50;12.93;;;3.90;18.30;;;;;;5009172;28;20049;-74
2020/12/11 13:00:24;;;;;;;25.23;12.90;;;4.00;18.20;;;;;;5005691;28;20160;-71
2020/12/11 13:03:23;;;;;;;21.52;12.60;;;4.00;18.70;;;;;;5008749;28;20412;-72
2020/12/11 13:05:51;;;;;;;24.85;12.85;;;3.90;18.40;;;;;;5007393;28;20050;-71
2020/12/11 13:08:18;;;;;;;23.58;12.88;;;4.00;18.90;;;;;;5008771;28;20088;-71
2020/12/11 13:10:45;;;;;;;28.42;13.60;;;4.00;19.40;;;;;;5008231;28;20050;-72
2020/12/11 13:13:12;;;;;;;26.52;13.70;;;3.90;19.10;;;;;;5007446;28;20046;-70
2020/12/11 13:15:39;;;;;;;26.58;13.35;;;4.00;19.20;;;;;;5008683;28;20079;-72
2020/12/11 13:22:48;;;;;;;27.52;11.88;;;4.00;19.20;;;;;;5008899;28;20051;-71
2020/12/11 13:25:42;;;;;;;23.50;13.63;;;3.90;19.30;;;;;;5012008;28;20065;-71